sensor_id;sensor_type;location;lat;lon;timestamp;temperature;humidity
23149;DHT22;11743;51.228;22.498;2023-05-23T00:00:09;9.40;99.90
23149;DHT22;11743;51.228;22.498;2023-05-23T00:00:32;9.40;99.90
23149;DHT22;11743;51.228;22.498;2023-05-23T00:00:54;9.40;99.90
23149;DHT22;11743;51.228;22.498;2023-05-23T00:01:15;9.30;99.90
23149;DHT22;11743;51.228;22.498;2023-05-23T00:01:38;9.30;99.90
23149;DHT22;11743;51.228;22.498;2023-05-23T00:02:00;9.30;99.90
23149;DHT22;11743;51.228;22.498;2023-05-23T00:02:22;9.30;99.90
23149;DHT22;11743;51.228;22.498;2023-05-23T00:02:44;9.30;99.90
23149;DHT22;11743;51.228;22.498;2023-05-23T00:03:07;9.30;99.90
23149;DHT22;11743;51.228;22.498;2023-05-23T00:03:29;9.30;99.90
23149;DHT22;11743;51.228;22.498;2023-05-23T00:03:52;9.30;99.90
23149;DHT22;11743;51.228;22.498;2023-05-23T00:04:16;9.30;99.90
23149;DHT22;11743;51.228;22.498;2023-05-23T00:04:39;9.30;99.90
23149;DHT22;11743;51.228;22.498;2023-05-23T00:05:01;9.30;99.90
23149;DHT22;11743;51.228;22.498;2023-05-23T00:05:24;9.30;99.90
23149;DHT22;11743;51.228;22.498;2023-05-23T00:05:47;9.30;99.90
23149;DHT22;11743;51.228;22.498;2023-05-23T00:06:09;9.30;99.90
23149;DHT22;11743;51.228;22.498;2023-05-23T00:06:32;9.30;99.90
23149;DHT22;11743;51.228;22.498;2023-05-23T00:06:55;9.30;99.90
23149;DHT22;11743;51.228;22.498;2023-05-23T00:07:17;9.30;99.90
23149;DHT22;11743;51.228;22.498;2023-05-23T00:07:38;9.30;99.90
23149;DHT22;11743;51.228;22.498;2023-05-23T00:08:00;9.30;99.90
23149;DHT22;11743;51.228;22.498;2023-05-23T00:08:22;9.30;99.90
23149;DHT22;11743;51.228;22.498;2023-05-23T00:08:44;9.30;99.90
23149;DHT22;11743;51.228;22.498;2023-05-23T00:09:06;9.30;99.90
23149;DHT22;11743;51.228;22.498;2023-05-23T00:09:27;9.30;99.90
23149;DHT22;11743;51.228;22.498;2023-05-23T00:09:49;9.30;99.90
23149;DHT22;11743;51.228;22.498;2023-05-23T00:10:12;9.20;99.90
23149;DHT22;11743;51.228;22.498;2023-05-23T00:10:34;9.20;99.90
23149;DHT22;11743;51.228;22.498;2023-05-23T00:10:56;9.20;99.90
23149;DHT22;11743;51.228;22.498;2023-05-23T00:11:18;9.20;99.90
23149;DHT22;11743;51.228;22.498;2023-05-23T00:11:41;9.20;99.90
23149;DHT22;11743;51.228;22.498;2023-05-23T00:12:06;9.20;99.90
23149;DHT22;11743;51.228;22.498;2023-05-23T00:12:28;9.20;99.90
23149;DHT22;11743;51.228;22.498;2023-05-23T00:12:50;9.20;99.90
23149;DHT22;11743;51.228;22.498;2023-05-23T00:13:13;9.20;99.90
23149;DHT22;11743;51.228;22.498;2023-05-23T00:13:35;9.20;99.90
23149;DHT22;11743;51.228;22.498;2023-05-23T00:13:57;9.20;99.90
23149;DHT22;11743;51.228;22.498;2023-05-23T00:14:21;9.20;99.90
23149;DHT22;11743;51.228;22.498;2023-05-23T00:14:44;9.20;99.90
23149;DHT22;11743;51.228;22.498;2023-05-23T00:15:07;9.20;99.90
23149;DHT22;11743;51.228;22.498;2023-05-23T00:15:29;9.10;99.90
23149;DHT22;11743;51.228;22.498;2023-05-23T00:15:51;9.20;99.90
23149;DHT22;11743;51.228;22.498;2023-05-23T00:16:13;9.20;99.90
23149;DHT22;11743;51.228;22.498;2023-05-23T00:16:35;9.20;99.90
23149;DHT22;11743;51.228;22.498;2023-05-23T00:17:01;9.10;99.90
23149;DHT22;11743;51.228;22.498;2023-05-23T00:17:23;9.10;99.90
23149;DHT22;11743;51.228;22.498;2023-05-23T00:17:48;9.20;99.90
23149;DHT22;11743;51.228;22.498;2023-05-23T00:18:10;9.10;99.90
23149;DHT22;11743;51.228;22.498;2023-05-23T00:18:32;9.20;99.90
23149;DHT22;11743;51.228;22.498;2023-05-23T00:18:54;9.20;99.90
23149;DHT22;11743;51.228;22.498;2023-05-23T00:19:18;9.20;99.90
23149;DHT22;11743;51.228;22.498;2023-05-23T00:19:40;9.10;99.90
23149;DHT22;11743;51.228;22.498;2023-05-23T00:20:02;9.20;99.90
23149;DHT22;11743;51.228;22.498;2023-05-23T00:20:24;9.20;99.90
23149;DHT22;11743;51.228;22.498;2023-05-23T00:20:46;9.20;99.90
23149;DHT22;11743;51.228;22.498;2023-05-23T00:21:08;9.20;99.90
23149;DHT22;11743;51.228;22.498;2023-05-23T00:21:30;9.10;99.90
23149;DHT22;11743;51.228;22.498;2023-05-23T00:21:53;9.10;99.90
23149;DHT22;11743;51.228;22.498;2023-05-23T00:22:19;9.20;99.90
23149;DHT22;11743;51.228;22.498;2023-05-23T00:22:41;9.10;99.90
23149;DHT22;11743;51.228;22.498;2023-05-23T00:23:03;9.10;99.90
23149;DHT22;11743;51.228;22.498;2023-05-23T00:23:25;9.10;99.90
23149;DHT22;11743;51.228;22.498;2023-05-23T00:23:50;9.10;99.90
23149;DHT22;11743;51.228;22.498;2023-05-23T00:24:12;9.10;99.90
23149;DHT22;11743;51.228;22.498;2023-05-23T00:24:33;9.10;99.90
23149;DHT22;11743;51.228;22.498;2023-05-23T00:24:55;9.10;99.90
23149;DHT22;11743;51.228;22.498;2023-05-23T00:25:18;9.10;99.90
23149;DHT22;11743;51.228;22.498;2023-05-23T00:25:42;9.10;99.90
23149;DHT22;11743;51.228;22.498;2023-05-23T00:26:09;9.20;99.90
23149;DHT22;11743;51.228;22.498;2023-05-23T00:26:31;9.10;99.90
23149;DHT22;11743;51.228;22.498;2023-05-23T00:26:53;9.10;99.90
23149;DHT22;11743;51.228;22.498;2023-05-23T00:27:14;9.10;99.90
23149;DHT22;11743;51.228;22.498;2023-05-23T00:27:36;9.10;99.90
23149;DHT22;11743;51.228;22.498;2023-05-23T00:27:59;9.10;99.90
23149;DHT22;11743;51.228;22.498;2023-05-23T00:28:21;9.10;99.90
23149;DHT22;11743;51.228;22.498;2023-05-23T00:28:43;9.10;99.90
23149;DHT22;11743;51.228;22.498;2023-05-23T00:29:05;9.10;99.90
23149;DHT22;11743;51.228;22.498;2023-05-23T00:29:26;9.10;99.90
23149;DHT22;11743;51.228;22.498;2023-05-23T00:29:48;9.10;99.90
23149;DHT22;11743;51.228;22.498;2023-05-23T00:30:10;9.10;99.90
23149;DHT22;11743;51.228;22.498;2023-05-23T00:30:33;9.10;99.90
23149;DHT22;11743;51.228;22.498;2023-05-23T00:30:55;9.10;99.90
23149;DHT22;11743;51.228;22.498;2023-05-23T00:31:17;9.10;99.90
23149;DHT22;11743;51.228;22.498;2023-05-23T00:31:39;9.10;99.90
23149;DHT22;11743;51.228;22.498;2023-05-23T00:32:01;9.10;99.90
23149;DHT22;11743;51.228;22.498;2023-05-23T00:32:23;9.10;99.90
23149;DHT22;11743;51.228;22.498;2023-05-23T00:32:45;9.10;99.90
23149;DHT22;11743;51.228;22.498;2023-05-23T00:33:06;9.10;99.90
23149;DHT22;11743;51.228;22.498;2023-05-23T00:33:29;9.10;99.90
23149;DHT22;11743;51.228;22.498;2023-05-23T00:33:53;9.10;99.90
23149;DHT22;11743;51.228;22.498;2023-05-23T00:34:15;9.10;99.90
23149;DHT22;11743;51.228;22.498;2023-05-23T00:34:40;9.00;99.90
23149;DHT22;11743;51.228;22.498;2023-05-23T00:35:01;9.00;99.90
23149;DHT22;11743;51.228;22.498;2023-05-23T00:35:24;9.10;99.90
23149;DHT22;11743;51.228;22.498;2023-05-23T00:35:47;9.00;99.90
23149;DHT22;11743;51.228;22.498;2023-05-23T00:36:09;9.00;99.90
23149;DHT22;11743;51.228;22.498;2023-05-23T00:36:31;9.00;99.90
23149;DHT22;11743;51.228;22.498;2023-05-23T00:36:57;9.00;99.90
23149;DHT22;11743;51.228;22.498;2023-05-23T00:37:20;9.00;99.90
23149;DHT22;11743;51.228;22.498;2023-05-23T00:37:42;9.10;99.90
23149;DHT22;11743;51.228;22.498;2023-05-23T00:38:06;9.00;99.90
23149;DHT22;11743;51.228;22.498;2023-05-23T00:38:28;9.00;99.90
23149;DHT22;11743;51.228;22.498;2023-05-23T00:38:50;9.00;99.90
23149;DHT22;11743;51.228;22.498;2023-05-23T00:39:13;9.00;99.90
23149;DHT22;11743;51.228;22.498;2023-05-23T00:39:40;9.00;99.90
23149;DHT22;11743;51.228;22.498;2023-05-23T00:40:02;9.00;99.90
23149;DHT22;11743;51.228;22.498;2023-05-23T00:40:24;9.00;99.90
23149;DHT22;11743;51.228;22.498;2023-05-23T00:40:46;9.00;99.90
23149;DHT22;11743;51.228;22.498;2023-05-23T00:41:08;9.00;99.90
23149;DHT22;11743;51.228;22.498;2023-05-23T00:41:30;9.00;99.90
23149;DHT22;11743;51.228;22.498;2023-05-23T00:41:52;9.00;99.90
23149;DHT22;11743;51.228;22.498;2023-05-23T00:42:14;9.00;99.90
23149;DHT22;11743;51.228;22.498;2023-05-23T00:42:35;9.00;99.90
23149;DHT22;11743;51.228;22.498;2023-05-23T00:42:57;9.00;99.90
23149;DHT22;11743;51.228;22.498;2023-05-23T00:43:19;9.00;99.90
23149;DHT22;11743;51.228;22.498;2023-05-23T00:43:43;9.00;99.90
23149;DHT22;11743;51.228;22.498;2023-05-23T00:44:04;9.00;99.90
23149;DHT22;11743;51.228;22.498;2023-05-23T00:44:26;9.00;99.90
23149;DHT22;11743;51.228;22.498;2023-05-23T00:44:48;9.00;99.90
23149;DHT22;11743;51.228;22.498;2023-05-23T00:45:10;9.00;99.90
23149;DHT22;11743;51.228;22.498;2023-05-23T00:45:35;9.00;99.90
23149;DHT22;11743;51.228;22.498;2023-05-23T00:45:58;9.00;99.90
23149;DHT22;11743;51.228;22.498;2023-05-23T00:46:21;9.00;99.90
23149;DHT22;11743;51.228;22.498;2023-05-23T00:46:44;9.00;99.90
23149;DHT22;11743;51.228;22.498;2023-05-23T00:47:08;9.00;99.90
23149;DHT22;11743;51.228;22.498;2023-05-23T00:47:30;9.00;99.90
23149;DHT22;11743;51.228;22.498;2023-05-23T00:47:52;9.00;99.90
23149;DHT22;11743;51.228;22.498;2023-05-23T00:48:15;8.90;99.90
23149;DHT22;11743;51.228;22.498;2023-05-23T00:48:37;9.00;99.90
23149;DHT22;11743;51.228;22.498;2023-05-23T00:48:59;8.90;99.90
23149;DHT22;11743;51.228;22.498;2023-05-23T00:49:21;8.90;99.90
23149;DHT22;11743;51.228;22.498;2023-05-23T00:49:43;8.90;99.90
23149;DHT22;11743;51.228;22.498;2023-05-23T00:50:12;8.90;99.90
23149;DHT22;11743;51.228;22.498;2023-05-23T00:50:35;8.90;99.90
23149;DHT22;11743;51.228;22.498;2023-05-23T00:50:57;8.90;99.90
23149;DHT22;11743;51.228;22.498;2023-05-23T00:51:19;8.90;99.90
23149;DHT22;11743;51.228;22.498;2023-05-23T00:51:41;8.90;99.90
23149;DHT22;11743;51.228;22.498;2023-05-23T00:52:04;8.90;99.90
23149;DHT22;11743;51.228;22.498;2023-05-23T00:52:26;8.90;99.90
23149;DHT22;11743;51.228;22.498;2023-05-23T00:52:48;8.90;99.90
23149;DHT22;11743;51.228;22.498;2023-05-23T00:53:10;8.90;99.90
23149;DHT22;11743;51.228;22.498;2023-05-23T00:53:33;8.90;99.90
23149;DHT22;11743;51.228;22.498;2023-05-23T00:53:55;8.90;99.90
23149;DHT22;11743;51.228;22.498;2023-05-23T00:54:19;8.90;99.90
23149;DHT22;11743;51.228;22.498;2023-05-23T00:54:44;8.90;99.90
23149;DHT22;11743;51.228;22.498;2023-05-23T00:55:06;8.90;99.90
23149;DHT22;11743;51.228;22.498;2023-05-23T00:55:29;8.90;99.90
23149;DHT22;11743;51.228;22.498;2023-05-23T00:55:51;8.90;99.90
23149;DHT22;11743;51.228;22.498;2023-05-23T00:56:13;8.90;99.90
23149;DHT22;11743;51.228;22.498;2023-05-23T00:56:35;8.80;99.90
23149;DHT22;11743;51.228;22.498;2023-05-23T00:56:58;8.80;99.90
23149;DHT22;11743;51.228;22.498;2023-05-23T00:57:20;8.80;99.90
23149;DHT22;11743;51.228;22.498;2023-05-23T00:57:43;8.80;99.90
23149;DHT22;11743;51.228;22.498;2023-05-23T00:58:05;8.80;99.90
23149;DHT22;11743;51.228;22.498;2023-05-23T00:58:27;8.80;99.90
23149;DHT22;11743;51.228;22.498;2023-05-23T00:58:48;8.80;99.90
23149;DHT22;11743;51.228;22.498;2023-05-23T00:59:11;8.80;99.90
23149;DHT22;11743;51.228;22.498;2023-05-23T00:59:35;8.80;99.90
23149;DHT22;11743;51.228;22.498;2023-05-23T00:59:57;8.80;99.90
23149;DHT22;11743;51.228;22.498;2023-05-23T01:00:19;8.80;99.90
23149;DHT22;11743;51.228;22.498;2023-05-23T01:00:42;8.80;99.90
23149;DHT22;11743;51.228;22.498;2023-05-23T01:01:06;8.80;99.90
23149;DHT22;11743;51.228;22.498;2023-05-23T01:01:28;8.80;99.90
23149;DHT22;11743;51.228;22.498;2023-05-23T01:01:51;8.80;99.90
23149;DHT22;11743;51.228;22.498;2023-05-23T01:02:15;8.80;99.90
23149;DHT22;11743;51.228;22.498;2023-05-23T01:02:43;8.80;99.90
23149;DHT22;11743;51.228;22.498;2023-05-23T01:03:05;8.70;99.90
23149;DHT22;11743;51.228;22.498;2023-05-23T01:03:27;8.70;99.90
23149;DHT22;11743;51.228;22.498;2023-05-23T01:03:50;8.70;99.90
23149;DHT22;11743;51.228;22.498;2023-05-23T01:04:13;8.70;99.90
23149;DHT22;11743;51.228;22.498;2023-05-23T01:04:35;8.70;99.90
23149;DHT22;11743;51.228;22.498;2023-05-23T01:04:57;8.70;99.90
23149;DHT22;11743;51.228;22.498;2023-05-23T01:05:20;8.70;99.90
23149;DHT22;11743;51.228;22.498;2023-05-23T01:05:46;8.70;99.90
23149;DHT22;11743;51.228;22.498;2023-05-23T01:06:08;8.70;99.90
23149;DHT22;11743;51.228;22.498;2023-05-23T01:06:30;8.70;99.90
23149;DHT22;11743;51.228;22.498;2023-05-23T01:06:54;8.70;99.90
23149;DHT22;11743;51.228;22.498;2023-05-23T01:07:16;8.70;99.90
23149;DHT22;11743;51.228;22.498;2023-05-23T01:07:39;8.70;99.90
23149;DHT22;11743;51.228;22.498;2023-05-23T01:08:00;8.70;99.90
23149;DHT22;11743;51.228;22.498;2023-05-23T01:08:23;8.70;99.90
23149;DHT22;11743;51.228;22.498;2023-05-23T01:08:45;8.70;99.90
23149;DHT22;11743;51.228;22.498;2023-05-23T01:09:07;8.70;99.90
23149;DHT22;11743;51.228;22.498;2023-05-23T01:09:30;8.70;99.90
23149;DHT22;11743;51.228;22.498;2023-05-23T01:09:52;8.70;99.90
23149;DHT22;11743;51.228;22.498;2023-05-23T01:10:16;8.70;99.90
23149;DHT22;11743;51.228;22.498;2023-05-23T01:10:39;8.70;99.90
23149;DHT22;11743;51.228;22.498;2023-05-23T01:11:06;8.70;99.90
23149;DHT22;11743;51.228;22.498;2023-05-23T01:11:39;8.70;99.90
23149;DHT22;11743;51.228;22.498;2023-05-23T01:12:24;8.70;99.90
23149;DHT22;11743;51.228;22.498;2023-05-23T01:13:39;8.70;99.90
23149;DHT22;11743;51.228;22.498;2023-05-23T01:14:08;8.70;99.90
23149;DHT22;11743;51.228;22.498;2023-05-23T01:15:14;8.70;99.90
23149;DHT22;11743;51.228;22.498;2023-05-23T01:15:38;8.70;99.90
23149;DHT22;11743;51.228;22.498;2023-05-23T01:16:13;8.70;99.90
23149;DHT22;11743;51.228;22.498;2023-05-23T01:16:59;8.60;99.90
23149;DHT22;11743;51.228;22.498;2023-05-23T01:17:34;8.60;99.90
23149;DHT22;11743;51.228;22.498;2023-05-23T01:18:15;8.50;99.90
23149;DHT22;11743;51.228;22.498;2023-05-23T01:19:11;8.70;99.90
23149;DHT22;11743;51.228;22.498;2023-05-23T01:19:59;8.60;99.90
23149;DHT22;11743;51.228;22.498;2023-05-23T01:20:30;8.60;99.90
23149;DHT22;11743;51.228;22.498;2023-05-23T01:20:58;8.60;99.90
23149;DHT22;11743;51.228;22.498;2023-05-23T01:21:21;8.60;99.90
23149;DHT22;11743;51.228;22.498;2023-05-23T01:21:47;8.60;99.90
23149;DHT22;11743;51.228;22.498;2023-05-23T01:24:26;8.60;99.90
23149;DHT22;11743;51.228;22.498;2023-05-23T01:24:56;8.60;99.90
23149;DHT22;11743;51.228;22.498;2023-05-23T01:26:13;8.60;99.90
23149;DHT22;11743;51.228;22.498;2023-05-23T01:26:59;8.60;99.90
23149;DHT22;11743;51.228;22.498;2023-05-23T01:27:52;8.50;99.90
23149;DHT22;11743;51.228;22.498;2023-05-23T01:28:19;8.60;99.90
23149;DHT22;11743;51.228;22.498;2023-05-23T01:28:46;8.50;99.90
23149;DHT22;11743;51.228;22.498;2023-05-23T01:29:12;8.60;99.90
23149;DHT22;11743;51.228;22.498;2023-05-23T01:29:38;8.50;99.90
23149;DHT22;11743;51.228;22.498;2023-05-23T01:30:04;8.50;99.90
23149;DHT22;11743;51.228;22.498;2023-05-23T01:30:31;8.50;99.90
23149;DHT22;11743;51.228;22.498;2023-05-23T01:30:56;8.50;99.90
23149;DHT22;11743;51.228;22.498;2023-05-23T01:31:19;8.50;99.90
23149;DHT22;11743;51.228;22.498;2023-05-23T01:31:44;8.50;99.90
23149;DHT22;11743;51.228;22.498;2023-05-23T01:32:09;8.50;99.90
23149;DHT22;11743;51.228;22.498;2023-05-23T01:32:32;8.50;99.90
23149;DHT22;11743;51.228;22.498;2023-05-23T01:32:55;8.50;99.90
23149;DHT22;11743;51.228;22.498;2023-05-23T01:33:19;8.50;99.90
23149;DHT22;11743;51.228;22.498;2023-05-23T01:33:43;8.50;99.90
23149;DHT22;11743;51.228;22.498;2023-05-23T01:34:07;8.50;99.90
23149;DHT22;11743;51.228;22.498;2023-05-23T01:34:30;8.50;99.90
23149;DHT22;11743;51.228;22.498;2023-05-23T01:34:54;8.50;99.90
23149;DHT22;11743;51.228;22.498;2023-05-23T01:35:23;8.50;99.90
23149;DHT22;11743;51.228;22.498;2023-05-23T01:35:45;8.50;99.90
23149;DHT22;11743;51.228;22.498;2023-05-23T01:36:07;8.40;99.90
23149;DHT22;11743;51.228;22.498;2023-05-23T01:36:32;8.40;99.90
23149;DHT22;11743;51.228;22.498;2023-05-23T01:36:55;8.40;99.90
23149;DHT22;11743;51.228;22.498;2023-05-23T01:37:17;8.40;99.90
23149;DHT22;11743;51.228;22.498;2023-05-23T01:37:40;8.40;99.90
23149;DHT22;11743;51.228;22.498;2023-05-23T01:38:02;8.40;99.90
23149;DHT22;11743;51.228;22.498;2023-05-23T01:38:24;8.40;99.90
23149;DHT22;11743;51.228;22.498;2023-05-23T01:38:46;8.40;99.90
23149;DHT22;11743;51.228;22.498;2023-05-23T01:39:08;8.40;99.90
23149;DHT22;11743;51.228;22.498;2023-05-23T01:39:29;8.40;99.90
23149;DHT22;11743;51.228;22.498;2023-05-23T01:39:51;8.40;99.90
23149;DHT22;11743;51.228;22.498;2023-05-23T01:40:13;8.40;99.90
23149;DHT22;11743;51.228;22.498;2023-05-23T01:40:35;8.40;99.90
23149;DHT22;11743;51.228;22.498;2023-05-23T01:40:57;8.40;99.90
23149;DHT22;11743;51.228;22.498;2023-05-23T01:41:19;8.40;99.90
23149;DHT22;11743;51.228;22.498;2023-05-23T01:41:41;8.40;99.90
23149;DHT22;11743;51.228;22.498;2023-05-23T01:42:03;8.40;99.90
23149;DHT22;11743;51.228;22.498;2023-05-23T01:42:25;8.40;99.90
23149;DHT22;11743;51.228;22.498;2023-05-23T01:42:48;8.40;99.90
23149;DHT22;11743;51.228;22.498;2023-05-23T01:43:11;8.40;99.90
23149;DHT22;11743;51.228;22.498;2023-05-23T01:43:33;8.40;99.90
23149;DHT22;11743;51.228;22.498;2023-05-23T01:43:54;8.40;99.90
23149;DHT22;11743;51.228;22.498;2023-05-23T01:44:16;8.40;99.90
23149;DHT22;11743;51.228;22.498;2023-05-23T01:44:44;8.30;99.90
23149;DHT22;11743;51.228;22.498;2023-05-23T01:45:07;8.40;99.90
23149;DHT22;11743;51.228;22.498;2023-05-23T01:45:29;8.30;99.90
23149;DHT22;11743;51.228;22.498;2023-05-23T01:45:55;8.30;99.90
23149;DHT22;11743;51.228;22.498;2023-05-23T01:46:18;8.30;99.90
23149;DHT22;11743;51.228;22.498;2023-05-23T01:46:40;8.30;99.90
23149;DHT22;11743;51.228;22.498;2023-05-23T01:47:06;8.30;99.90
23149;DHT22;11743;51.228;22.498;2023-05-23T01:47:29;8.30;99.90
23149;DHT22;11743;51.228;22.498;2023-05-23T01:47:53;8.30;99.90
23149;DHT22;11743;51.228;22.498;2023-05-23T01:48:16;8.30;99.90
23149;DHT22;11743;51.228;22.498;2023-05-23T01:48:39;8.30;99.90
23149;DHT22;11743;51.228;22.498;2023-05-23T01:49:02;8.30;99.90
23149;DHT22;11743;51.228;22.498;2023-05-23T01:49:25;8.30;99.90
23149;DHT22;11743;51.228;22.498;2023-05-23T01:49:48;8.30;99.90
23149;DHT22;11743;51.228;22.498;2023-05-23T01:50:10;8.30;99.90
23149;DHT22;11743;51.228;22.498;2023-05-23T01:50:33;8.30;99.90
23149;DHT22;11743;51.228;22.498;2023-05-23T01:50:55;8.30;99.90
23149;DHT22;11743;51.228;22.498;2023-05-23T01:51:17;8.30;99.90
23149;DHT22;11743;51.228;22.498;2023-05-23T01:51:40;8.30;99.90
23149;DHT22;11743;51.228;22.498;2023-05-23T01:52:04;8.30;99.90
23149;DHT22;11743;51.228;22.498;2023-05-23T01:52:26;8.30;99.90
23149;DHT22;11743;51.228;22.498;2023-05-23T01:52:49;8.30;99.90
23149;DHT22;11743;51.228;22.498;2023-05-23T01:53:14;8.30;99.90
23149;DHT22;11743;51.228;22.498;2023-05-23T01:53:36;8.30;99.90
23149;DHT22;11743;51.228;22.498;2023-05-23T01:53:59;8.30;99.90
23149;DHT22;11743;51.228;22.498;2023-05-23T01:54:21;8.30;99.90
23149;DHT22;11743;51.228;22.498;2023-05-23T01:54:44;8.30;99.90
23149;DHT22;11743;51.228;22.498;2023-05-23T01:55:10;8.30;99.90
23149;DHT22;11743;51.228;22.498;2023-05-23T01:55:33;8.30;99.90
23149;DHT22;11743;51.228;22.498;2023-05-23T01:55:56;8.30;99.90
23149;DHT22;11743;51.228;22.498;2023-05-23T01:56:19;8.30;99.90
23149;DHT22;11743;51.228;22.498;2023-05-23T01:56:41;8.30;99.90
23149;DHT22;11743;51.228;22.498;2023-05-23T01:57:04;8.20;99.90
23149;DHT22;11743;51.228;22.498;2023-05-23T01:57:28;8.20;99.90
23149;DHT22;11743;51.228;22.498;2023-05-23T01:57:53;8.30;99.90
23149;DHT22;11743;51.228;22.498;2023-05-23T01:58:16;8.30;99.90
23149;DHT22;11743;51.228;22.498;2023-05-23T01:58:38;8.20;99.90
23149;DHT22;11743;51.228;22.498;2023-05-23T01:59:00;8.20;99.90
23149;DHT22;11743;51.228;22.498;2023-05-23T01:59:23;8.20;99.90
23149;DHT22;11743;51.228;22.498;2023-05-23T01:59:45;8.20;99.90
23149;DHT22;11743;51.228;22.498;2023-05-23T02:00:07;8.30;99.90
23149;DHT22;11743;51.228;22.498;2023-05-23T02:00:32;8.30;99.90
23149;DHT22;11743;51.228;22.498;2023-05-23T02:00:55;8.20;99.90
23149;DHT22;11743;51.228;22.498;2023-05-23T02:01:17;8.20;99.90
23149;DHT22;11743;51.228;22.498;2023-05-23T02:01:39;8.20;99.90
23149;DHT22;11743;51.228;22.498;2023-05-23T02:02:02;8.20;99.90
23149;DHT22;11743;51.228;22.498;2023-05-23T02:02:24;8.20;99.90
23149;DHT22;11743;51.228;22.498;2023-05-23T02:02:46;8.20;99.90
23149;DHT22;11743;51.228;22.498;2023-05-23T02:03:08;8.20;99.90
23149;DHT22;11743;51.228;22.498;2023-05-23T02:03:30;8.20;99.90
23149;DHT22;11743;51.228;22.498;2023-05-23T02:03:52;8.20;99.90
23149;DHT22;11743;51.228;22.498;2023-05-23T02:04:14;8.20;99.90
23149;DHT22;11743;51.228;22.498;2023-05-23T02:04:36;8.20;99.90
23149;DHT22;11743;51.228;22.498;2023-05-23T02:04:58;8.20;99.90
23149;DHT22;11743;51.228;22.498;2023-05-23T02:05:20;8.20;99.90
23149;DHT22;11743;51.228;22.498;2023-05-23T02:05:42;8.20;99.90
23149;DHT22;11743;51.228;22.498;2023-05-23T02:06:04;8.20;99.90
23149;DHT22;11743;51.228;22.498;2023-05-23T02:06:26;8.20;99.90
23149;DHT22;11743;51.228;22.498;2023-05-23T02:06:48;8.20;99.90
23149;DHT22;11743;51.228;22.498;2023-05-23T02:07:10;8.20;99.90
23149;DHT22;11743;51.228;22.498;2023-05-23T02:07:32;8.20;99.90
23149;DHT22;11743;51.228;22.498;2023-05-23T02:07:53;8.20;99.90
23149;DHT22;11743;51.228;22.498;2023-05-23T02:08:15;8.20;99.90
23149;DHT22;11743;51.228;22.498;2023-05-23T02:08:37;8.20;99.90
23149;DHT22;11743;51.228;22.498;2023-05-23T02:08:59;8.20;99.90
23149;DHT22;11743;51.228;22.498;2023-05-23T02:09:21;8.20;99.90
23149;DHT22;11743;51.228;22.498;2023-05-23T02:09:43;8.20;99.90
23149;DHT22;11743;51.228;22.498;2023-05-23T02:10:07;8.20;99.90
23149;DHT22;11743;51.228;22.498;2023-05-23T02:10:29;8.20;99.90
23149;DHT22;11743;51.228;22.498;2023-05-23T02:10:51;8.20;99.90
23149;DHT22;11743;51.228;22.498;2023-05-23T02:11:13;8.20;99.90
23149;DHT22;11743;51.228;22.498;2023-05-23T02:11:35;8.20;99.90
23149;DHT22;11743;51.228;22.498;2023-05-23T02:11:56;8.20;99.90
23149;DHT22;11743;51.228;22.498;2023-05-23T02:12:20;8.20;99.90
23149;DHT22;11743;51.228;22.498;2023-05-23T02:12:41;8.20;99.90
23149;DHT22;11743;51.228;22.498;2023-05-23T02:13:03;8.20;99.90
23149;DHT22;11743;51.228;22.498;2023-05-23T02:13:25;10.10;99.90
23149;DHT22;11743;51.228;22.498;2023-05-23T02:13:47;8.20;99.90
23149;DHT22;11743;51.228;22.498;2023-05-23T02:14:10;8.20;99.90
23149;DHT22;11743;51.228;22.498;2023-05-23T02:14:32;8.20;99.90
23149;DHT22;11743;51.228;22.498;2023-05-23T02:14:54;8.20;99.90
23149;DHT22;11743;51.228;22.498;2023-05-23T02:15:16;8.20;99.90
23149;DHT22;11743;51.228;22.498;2023-05-23T02:15:38;8.20;99.90
23149;DHT22;11743;51.228;22.498;2023-05-23T02:16:00;8.20;99.90
23149;DHT22;11743;51.228;22.498;2023-05-23T02:16:22;8.20;99.90
23149;DHT22;11743;51.228;22.498;2023-05-23T02:16:46;8.20;99.90
23149;DHT22;11743;51.228;22.498;2023-05-23T02:17:08;8.20;99.90
23149;DHT22;11743;51.228;22.498;2023-05-23T02:17:35;8.20;99.90
23149;DHT22;11743;51.228;22.498;2023-05-23T02:17:59;8.20;99.90
23149;DHT22;11743;51.228;22.498;2023-05-23T02:18:23;8.20;99.90
23149;DHT22;11743;51.228;22.498;2023-05-23T02:18:46;8.20;99.90
23149;DHT22;11743;51.228;22.498;2023-05-23T02:19:09;8.20;99.90
23149;DHT22;11743;51.228;22.498;2023-05-23T02:19:31;8.20;99.90
23149;DHT22;11743;51.228;22.498;2023-05-23T02:19:53;8.20;99.90
23149;DHT22;11743;51.228;22.498;2023-05-23T02:20:15;8.20;99.90
23149;DHT22;11743;51.228;22.498;2023-05-23T02:20:39;8.20;99.90
23149;DHT22;11743;51.228;22.498;2023-05-23T02:21:01;8.20;99.90
23149;DHT22;11743;51.228;22.498;2023-05-23T02:21:23;8.20;99.90
23149;DHT22;11743;51.228;22.498;2023-05-23T02:21:45;8.20;99.90
23149;DHT22;11743;51.228;22.498;2023-05-23T02:22:07;8.20;99.90
23149;DHT22;11743;51.228;22.498;2023-05-23T02:22:29;8.20;99.90
23149;DHT22;11743;51.228;22.498;2023-05-23T02:22:50;8.20;99.90
23149;DHT22;11743;51.228;22.498;2023-05-23T02:23:12;8.20;99.90
23149;DHT22;11743;51.228;22.498;2023-05-23T02:23:34;8.20;99.90
23149;DHT22;11743;51.228;22.498;2023-05-23T02:23:56;8.20;99.90
23149;DHT22;11743;51.228;22.498;2023-05-23T02:24:18;8.20;99.90
23149;DHT22;11743;51.228;22.498;2023-05-23T02:24:40;8.20;99.90
23149;DHT22;11743;51.228;22.498;2023-05-23T02:25:01;8.20;99.90
23149;DHT22;11743;51.228;22.498;2023-05-23T02:25:23;8.20;99.90
23149;DHT22;11743;51.228;22.498;2023-05-23T02:25:45;8.20;99.90
23149;DHT22;11743;51.228;22.498;2023-05-23T02:26:07;8.20;99.90
23149;DHT22;11743;51.228;22.498;2023-05-23T02:26:29;8.20;99.90
23149;DHT22;11743;51.228;22.498;2023-05-23T02:26:51;8.20;99.90
23149;DHT22;11743;51.228;22.498;2023-05-23T02:27:13;8.20;99.90
23149;DHT22;11743;51.228;22.498;2023-05-23T02:27:35;8.20;99.90
23149;DHT22;11743;51.228;22.498;2023-05-23T02:27:57;8.20;99.90
23149;DHT22;11743;51.228;22.498;2023-05-23T02:28:18;8.20;99.90
23149;DHT22;11743;51.228;22.498;2023-05-23T02:28:41;8.20;99.90
23149;DHT22;11743;51.228;22.498;2023-05-23T02:29:02;8.20;99.90
23149;DHT22;11743;51.228;22.498;2023-05-23T02:29:24;8.20;99.90
23149;DHT22;11743;51.228;22.498;2023-05-23T02:29:46;8.20;99.90
23149;DHT22;11743;51.228;22.498;2023-05-23T02:30:08;8.20;99.90
23149;DHT22;11743;51.228;22.498;2023-05-23T02:30:30;8.20;99.90
23149;DHT22;11743;51.228;22.498;2023-05-23T02:30:52;8.20;99.90
23149;DHT22;11743;51.228;22.498;2023-05-23T02:31:14;8.20;99.90
23149;DHT22;11743;51.228;22.498;2023-05-23T02:31:36;8.20;99.90
23149;DHT22;11743;51.228;22.498;2023-05-23T02:31:57;8.20;99.90